Time;durP1;ratioP1;P1;durP2;ratioP2;P2;SDS_P1;SDS_P2;PMS_P1;PMS_P2;Temp;Humidity;BMP_temperature;BMP_pressure;BME280_temperature;BME280_humidity;BME280_pressure;Samples;Min_cycle;Max_cycle;Signal;HPM_P1;HPM_P2
2021/03/01 00:01:51;;;;;;;41.25;16.15;;;;;;;;;;4936817;29;20044;-92
2021/03/01 00:04:36;;;;;;;34.92;17.17;;;;;;;;;;4934356;29;20047;-92
2021/03/01 00:07:21;;;;;;;30.90;16.98;;;;;;;;;;4923595;29;20058;-93
2021/03/01 00:10:12;;;;;;;29.05;14.18;;;;;;;;;;4926919;29;20514;-93
2021/03/01 00:12:57;;;;;;;35.00;16.98;;;;;;;;;;4940503;29;20062;-92
2021/03/01 00:16:31;;;;;;;40.20;16.42;;;6.00;99.90;;;;;;4930918;29;20058;-92
2021/03/01 00:19:15;;;;;;;33.58;16.70;;;;;;;;;;4932607;29;20048;-92
2021/03/01 00:22:07;;;;;;;34.60;13.57;;;;;;;;;;4932044;29;20069;-94
2021/03/01 00:24:57;;;;;;;36.08;18.42;;;;;;;;;;4956753;29;20082;-94
2021/03/01 00:27:40;;;;;;;38.78;19.20;;;;;;;;;;4940306;29;20043;-94
2021/03/01 00:30:17;;;;;;;36.97;17.17;;;;;;;;;;4924253;29;20060;-93
2021/03/01 00:33:08;;;;;;;40.67;17.00;;;;;;;;;;4926398;29;20044;-94
2021/03/01 00:35:47;;;;;;;57.30;19.52;;;;;;;;;;4886477;29;20063;-94
2021/03/01 00:38:18;;;;;;;45.33;19.73;;;;;;;;;;4879973;29;20052;-93
2021/03/01 00:40:45;;;;;;;48.13;21.15;;;;;;;;;;4882990;29;20064;-93
2021/03/01 00:43:33;;;;;;;56.60;24.60;;;;;;;;;;4870063;29;20064;-92
2021/03/01 00:46:02;;;;;;;52.75;23.67;;;;;;;;;;4880181;29;20055;-93
2021/03/01 00:48:30;;;;;;;42.38;20.73;;;;;;;;;;4894093;29;20060;-92
2021/03/01 00:50:58;;;;;;;44.25;22.70;;;;;;;;;;4878949;29;20052;-93
2021/03/01 00:53:29;;;;;;;53.97;24.50;;;;;;;;;;4879669;29;20048;-93
2021/03/01 00:55:58;;;;;;;50.30;22.67;;;;;;;;;;4888521;29;20056;-93
2021/03/01 00:58:26;;;;;;;41.38;24.17;;;;;;;;;;4881962;29;20057;-93
2021/03/01 01:00:56;;;;;;;55.85;22.05;;;;;;;;;;4883089;29;20059;-92
2021/03/01 01:03:26;;;;;;;52.80;23.23;;;;;;;;;;4872436;29;20519;-92
2021/03/01 01:06:04;;;;;;;56.97;23.20;;;;;;;;;;4897702;29;20412;-93
2021/03/01 01:08:32;;;;;;;56.03;22.25;;;;;;;;;;4878239;29;20068;-93
2021/03/01 01:11:00;;;;;;;46.72;20.30;;;;;;;;;;4872600;29;20052;-93
2021/03/01 01:13:28;;;;;;;58.92;26.60;;;;;;;;;;4884327;29;20060;-93
2021/03/01 01:15:56;;;;;;;51.47;21.73;;;;;;;;;;4886171;29;20052;-93
2021/03/01 01:18:23;;;;;;;55.00;24.90;;;;;;;;;;4878485;29;20063;-94
2021/03/01 01:20:55;;;;;;;58.95;23.17;;;;;;;;;;4866015;29;20064;-93
2021/03/01 01:23:23;;;;;;;46.33;23.20;;;;;;;;;;4894593;29;20040;-93
2021/03/01 01:26:07;;;;;;;47.58;21.25;;;;;;;;;;4855148;29;20049;-93
2021/03/01 01:28:36;;;;;;;47.92;25.60;;;;;;;;;;4886788;29;20067;-93
2021/03/01 01:31:04;;;;;;;48.65;22.85;;;;;;;;;;4881485;29;20501;-90
2021/03/01 01:33:32;;;;;;;51.03;22.15;;;;;;;;;;4913289;29;20063;-93
2021/03/01 01:36:01;;;;;;;57.28;22.67;;;;;;;;;;4886680;29;20052;-92
2021/03/01 01:38:34;;;;;;;60.88;25.00;;;;;;;;;;4910092;29;20044;-94
2021/03/01 01:41:06;;;;;;;46.22;20.58;;;;;;;;;;4906010;29;20063;-93
2021/03/01 01:43:39;;;;;;;55.72;24.83;;;;;;;;;;4887513;29;20065;-93
2021/03/01 01:46:06;;;;;;;54.85;22.73;;;;;;;;;;4887810;29;20056;-93
2021/03/01 01:48:34;;;;;;;59.85;26.98;;;;;;;;;;4888528;29;20583;-94
2021/03/01 01:51:02;;;;;;;62.38;23.65;;;;;;;;;;4897656;29;20050;-93
2021/03/01 01:53:30;;;;;;;51.85;21.70;;;5.70;99.90;;;;;;4873906;29;20059;-93
2021/03/01 01:55:59;;;;;;;57.15;23.52;;;;;;;;;;4904107;29;20057;-93
2021/03/01 01:58:28;;;;;;;57.38;24.60;;;;;;;;;;4898266;29;20063;-94
2021/03/01 02:00:55;;;;;;;46.20;21.40;;;;;;;;;;4899997;29;20405;-93
2021/03/01 02:03:39;;;;;;;52.13;19.20;;;;;;;;;;4922710;29;20051;-94
2021/03/01 02:06:19;;;;;;;52.75;23.10;;;;;;;;;;4898608;29;20947;-93
2021/03/01 02:08:56;;;;;;;58.97;23.92;;;5.80;99.90;;;;;;4907627;29;20052;-94
2021/03/01 02:11:58;;;;;;;46.22;22.38;;;5.80;99.90;;;;;;4904365;29;20071;-94
2021/03/01 02:14:32;;;;;;;54.63;22.25;;;;;;;;;;4892147;29;20044;-94
2021/03/01 02:17:00;;;;;;;47.63;21.55;;;;;;;;;;4888768;29;20067;-93
2021/03/01 02:19:28;;;;;;;56.47;22.75;;;;;;;;;;4874863;29;20051;-94
2021/03/01 02:21:56;;;;;;;40.17;19.58;;;;;;;;;;4896161;29;20059;-93
2021/03/01 02:24:32;;;;;;;48.25;22.17;;;;;;;;;;4904498;29;20060;-93
2021/03/01 02:27:02;;;;;;;47.28;22.58;;;;;;;;;;4886597;29;20064;-93
2021/03/01 02:29:32;;;;;;;44.85;21.42;;;5.80;99.90;;;;;;4891263;29;20075;-92
2021/03/01 02:32:02;;;;;;;54.20;23.65;;;;;;;;;;4890369;29;20060;-95
2021/03/01 02:34:35;;;;;;;47.10;20.83;;;;;;;;;;4912550;29;20048;-94
2021/03/01 02:37:19;;;;;;;41.85;21.45;;;;;;;;;;4899339;29;20059;-93
2021/03/01 02:39:51;;;;;;;40.20;18.98;;;;;;;;;;4898935;29;20522;-93
2021/03/01 02:42:30;;;;;;;45.83;22.42;;;;;;;;;;4899616;29;20048;-93
2021/03/01 02:45:14;;;;;;;85.95;21.50;;;5.80;99.90;;;;;;4882953;29;20059;-93
2021/03/01 02:47:57;;;;;;;47.22;18.33;;;;;;;;;;4885365;29;20052;-93
2021/03/01 02:50:30;;;;;;;47.03;20.65;;;5.50;99.90;;;;;;4892958;29;20058;-93
2021/03/01 02:53:02;;;;;;;59.78;24.88;;;5.70;99.90;;;;;;4900734;29;20060;-93
2021/03/01 02:55:43;;;;;;;54.05;21.05;;;5.80;99.90;;;;;;4911299;29;20052;-93
2021/03/01 02:58:18;;;;;;;61.75;23.45;;;5.70;99.90;;;;;;4898948;29;20060;-93
2021/03/01 03:00:48;;;;;;;51.72;21.98;;;;;;;;;;4900150;29;20067;-93
2021/03/01 03:03:21;;;;;;;47.75;23.90;;;;;;;;;;4934300;29;20055;-95
2021/03/01 03:06:13;;;;;;;49.72;23.13;;;;;;;;;;4920096;29;20050;-93
2021/03/01 03:08:53;;;;;;;63.00;24.67;;;;;;;;;;4909783;29;20060;-93
2021/03/01 03:11:24;;;;;;;54.13;24.83;;;;;;;;;;4916335;29;20060;-94
2021/03/01 03:14:02;;;;;;;56.95;24.60;;;;;;;;;;4915201;29;20048;-93
2021/03/01 03:16:38;;;;;;;72.00;30.17;;;;;;;;;;4911404;29;20061;-94
2021/03/01 03:19:22;;;;;;;57.00;26.27;;;;;;;;;;4899178;29;20064;-93
2021/03/01 03:22:04;;;;;;;68.85;28.02;;;;;;;;;;4897906;29;20056;-94
2021/03/01 03:24:35;;;;;;;53.83;26.30;;;;;;;;;;4898671;29;20076;-92
2021/03/01 03:27:06;;;;;;;64.45;30.73;;;;;;;;;;4899232;29;20066;-93
2021/03/01 03:29:38;;;;;;;60.20;29.92;;;;;;;;;;4913433;29;20055;-93
2021/03/01 03:32:21;;;;;;;68.13;28.10;;;;;;;;;;4922207;29;20059;-94
2021/03/01 03:34:54;;;;;;;62.70;29.58;;;;;;;;;;4889371;29;20052;-92
2021/03/01 03:37:34;;;;;;;70.88;31.10;;;6.10;99.90;;;;;;4912822;29;20103;-94
2021/03/01 03:40:06;;;;;;;63.45;27.08;;;6.00;99.90;;;;;;4899641;29;20064;-93
2021/03/01 03:42:38;;;;;;;78.15;33.30;;;;;;;;;;4895426;29;20386;-93
2021/03/01 03:45:13;;;;;;;79.50;34.10;;;6.00;99.90;;;;;;4892486;29;20049;-93
2021/03/01 03:47:46;;;;;;;62.50;32.03;;;;;;;;;;4906852;29;20155;-93
2021/03/01 03:50:21;;;;;;;61.35;31.55;;;;;;;;;;4886719;29;20054;-92
2021/03/01 03:53:01;;;;;;;64.07;31.73;;;6.20;99.90;;;;;;4906828;29;20055;-93
2021/03/01 03:55:30;;;;;;;67.50;32.55;;;;;;;;;;4908157;29;20048;-94
2021/03/01 03:58:02;;;;;;;77.10;36.70;;;;;;;;;;4894867;29;20048;-93
2021/03/01 04:00:37;;;;;;;68.40;35.10;;;6.00;99.90;;;;;;4897716;29;20056;-94
2021/03/01 04:03:22;;;;;;;73.60;39.60;;;;;;;;;;4885656;29;20052;-93
2021/03/01 04:05:56;;;;;;;75.93;36.72;;;;;;;;;;4896341;29;20452;-93
2021/03/01 04:08:28;;;;;;;76.72;32.00;;;;;;;;;;4924535;29;20048;-94
2021/03/01 04:11:03;;;;;;;71.10;32.75;;;;;;;;;;4908521;29;20052;-93
2021/03/01 04:13:43;;;;;;;81.38;40.20;;;;;;;;;;4924608;29;20095;-91
2021/03/01 04:16:14;;;;;;;79.15;35.72;;;6.20;99.90;;;;;;4913148;29;20415;-91
2021/03/01 04:18:51;;;;;;;78.93;38.40;;;6.00;99.90;;;;;;4889922;29;20075;-91
2021/03/01 04:21:20;;;;;;;73.45;35.83;;;;;;;;;;4876339;29;20056;-92
2021/03/01 04:23:54;;;;;;;79.18;36.80;;;6.10;99.90;;;;;;4895479;29;20074;-92
2021/03/01 04:26:27;;;;;;;78.55;35.85;;;;;;;;;;4881897;29;20051;-91
2021/03/01 04:28:57;;;;;;;88.32;37.15;;;;;;;;;;4895043;29;20066;-91
2021/03/01 04:31:28;;;;;;;78.27;38.03;;;6.20;99.90;;;;;;4892479;29;20614;-91
2021/03/01 04:33:58;;;;;;;79.97;37.17;;;;;;;;;;4896318;29;20056;-92
2021/03/01 04:36:51;;;;;;;87.45;39.30;;;6.20;99.90;;;;;;4913895;29;20540;-92
2021/03/01 04:39:21;;;;;;;77.75;36.42;;;;;;;;;;4891082;29;20493;-92
2021/03/01 04:42:08;;;;;;;82.90;37.33;;;6.20;99.90;;;;;;4887016;29;20048;-92
2021/03/01 04:45:00;;;;;;;77.50;40.38;;;;;;;;;;4898634;29;20056;-91
2021/03/01 04:47:35;;;;;;;81.70;38.80;;;;;;;;;;4897669;29;20063;-93
2021/03/01 04:50:04;;;;;;;;;;;6.30;99.90;;;;;;4899439;29;20063;-93
2021/03/01 04:52:43;;;;;;;68.20;33.13;;;6.20;99.90;;;;;;4914595;29;19934;-92
2021/03/01 04:55:14;;;;;;;83.32;36.30;;;6.20;99.90;;;;;;4895490;29;20056;-93
2021/03/01 04:57:48;;;;;;;80.60;38.00;;;;;;;;;;4894328;29;20063;-92
2021/03/01 05:00:20;;;;;;;95.00;38.67;;;;;;;;;;4911641;29;20059;-93
2021/03/01 05:02:54;;;;;;;83.15;39.95;;;;;;;;;;4906775;29;20063;-93
2021/03/01 05:05:37;;;;;;;71.53;39.25;;;;;;;;;;4876378;29;20044;-93
2021/03/01 05:08:11;;;;;;;89.45;42.05;;;;;;;;;;4909382;29;20055;-92
2021/03/01 05:10:58;;;;;;;74.45;41.03;;;;;;;;;;4911114;29;20048;-91
2021/03/01 05:13:47;;;;;;;82.72;40.83;;;;;;;;;;4914758;29;20055;-92
2021/03/01 05:16:17;;;;;;;71.80;39.60;;;;;;;;;;4876671;29;20048;-92
2021/03/01 05:18:55;;;;;;;87.60;42.33;;;;;;;;;;4904606;29;20063;-91
2021/03/01 05:21:28;;;;;;;96.78;44.05;;;;;;;;;;4891086;29;20060;-91
2021/03/01 05:23:58;;;;;;;89.22;43.15;;;;;;;;;;4905013;29;20064;-93
2021/03/01 05:26:36;;;;;;;79.20;39.88;;;;;;;;;;4911277;29;20074;-91
2021/03/01 05:29:15;;;;;;;85.45;43.90;;;6.30;99.90;;;;;;4895200;29;20416;-90
2021/03/01 05:31:44;;;;;;;89.45;46.05;;;;;;;;;;4893853;29;20064;-92
2021/03/01 05:34:17;;;;;;;;;;;6.40;99.90;;;;;;4860932;29;20053;-92
2021/03/01 05:36:47;;;;;;;80.47;42.78;;;;;;;;;;4886596;29;19930;-91
2021/03/01 05:39:37;;;;;;;78.53;42.20;;;;;;;;;;4886472;29;20060;-91
2021/03/01 05:42:07;;;;;;;84.10;43.33;;;;;;;;;;4889490;29;20061;-92
2021/03/01 05:44:48;;;;;;;80.68;42.20;;;;;;;;;;4860787;29;20064;-91
2021/03/01 05:47:19;;;;;;;89.70;45.28;;;;;;;;;;4875614;29;20048;-90
2021/03/01 05:49:55;;;;;;;88.43;44.60;;;6.40;99.90;;;;;;4895465;29;20576;-91
2021/03/01 05:52:28;;;;;;;90.80;46.08;;;6.40;99.90;;;;;;4894350;29;20068;-91
2021/03/01 05:55:05;;;;;;;90.57;44.50;;;6.30;99.90;;;;;;4874304;29;20056;-92
2021/03/01 05:57:44;;;;;;;86.07;42.15;;;6.30;99.90;;;;;;4861722;29;20057;-91
2021/03/01 06:00:17;;;;;;;90.65;43.70;;;;;;;;;;4897692;29;20053;-91
2021/03/01 06:03:03;;;;;;;102.50;44.50;;;6.50;99.90;;;;;;4885871;29;20055;-92
2021/03/01 06:05:32;;;;;;;101.10;47.67;;;;;;;;;;4842553;29;20053;-91
2021/03/01 06:08:02;;;;;;;93.00;44.25;;;;;;;;;;4889554;29;20068;-92
2021/03/01 06:10:31;;;;;;;94.18;46.92;;;;;;;;;;4892573;29;20055;-92
2021/03/01 06:13:00;;;;;;;93.45;45.22;;;;;;;;;;4876713;29;20060;-93
2021/03/01 06:15:44;;;;;;;96.85;43.83;;;;;;;;;;4874449;29;20061;-91
2021/03/01 06:18:23;;;;;;;91.90;46.88;;;;;;;;;;4882975;29;20060;-90
2021/03/01 06:21:11;;;;;;;90.40;46.53;;;6.40;99.90;;;;;;4891699;29;20052;-91
2021/03/01 06:23:42;;;;;;;102.38;51.33;;;6.40;99.90;;;;;;4878301;29;20052;-91
2021/03/01 06:26:29;;;;;;;92.53;45.72;;;;;;;;;;4881072;29;20135;-92
2021/03/01 06:29:02;;;;;;;100.80;45.50;;;;;;;;;;4879526;29;20750;-91
2021/03/01 06:31:40;;;;;;;88.47;47.50;;;;;;;;;;4889161;29;20063;-90
2021/03/01 06:34:17;;;;;;;90.15;43.72;;;;;;;;;;4905175;29;20527;-92
2021/03/01 06:37:03;;;;;;;105.22;44.47;;;;;;;;;;4910537;29;20052;-92
2021/03/01 06:39:47;;;;;;;93.18;45.95;;;;;;;;;;4912769;29;20075;-92
2021/03/01 06:43:08;;;;;;;82.13;43.10;;;6.40;99.90;;;;;;4898407;29;20060;-93
2021/03/01 06:46:08;;;;;;;95.10;44.33;;;;;;;;;;4891658;29;20044;-92
2021/03/01 06:48:39;;;;;;;92.05;45.75;;;;;;;;;;4883626;29;20076;-92
2021/03/01 06:51:11;;;;;;;89.45;45.88;;;;;;;;;;4906299;29;20041;-92
2021/03/01 06:54:12;;;;;;;96.28;45.33;;;;;;;;;;4902019;29;20041;-94
2021/03/01 06:56:48;;;;;;;91.53;47.50;;;;;;;;;;4913035;29;20511;-93
2021/03/01 06:59:26;;;;;;;92.97;45.17;;;;;;;;;;4877633;29;20071;-91
2021/03/01 07:02:03;;;;;;;98.17;49.40;;;;;;;;;;4914472;29;20095;-92
2021/03/01 07:04:59;;;;;;;101.75;47.55;;;;;;;;;;4973201;23;20057;-92
2021/03/01 07:07:44;;;;;;;93.35;47.65;;;;;;;;;;4906697;28;20055;-94
2021/03/01 07:10:17;;;;;;;94.70;46.45;;;;;;;;;;4954058;29;20047;-92
2021/03/01 07:13:02;;;;;;;92.43;45.35;;;;;;;;;;4916565;29;20062;-92
2021/03/01 07:23:59;;;;;;;84.90;45.80;;;;;;;;;;5021834;23;20406;-94
2021/03/01 07:28:03;;;;;;;95.13;45.83;;;;;;;;;;5037287;23;20941;-93
2021/03/01 07:31:47;;;;;;;92.63;44.35;;;;;;;;;;4914694;28;20046;-93
2021/03/01 07:59:32;;;;;;;99.80;46.28;;;;;;;;;;4995343;28;20055;-94
2021/03/01 08:03:35;;;;;;;91.22;48.67;;;6.60;99.90;;;;;;5011048;28;20062;-94
2021/03/01 08:06:16;;;;;;;86.72;45.88;;;;;;;;;;4976075;28;20053;-92
2021/03/01 08:08:56;;;;;;;89.82;44.50;;;;;;;;;;4960538;28;20048;-91
2021/03/01 08:11:46;;;;;;;85.40;41.45;;;;;;;;;;4985653;28;20065;-92
2021/03/01 08:18:13;;;;;;;83.88;39.03;;;;;;;;;;4916013;29;20075;-93
2021/03/01 08:20:57;;;;;;;99.03;42.83;;;;;;;;;;4897134;28;20042;-91
2021/03/01 08:26:50;;;;;;;94.20;43.28;;;;;;;;;;4988712;28;20043;-91
2021/03/01 08:29:27;;;;;;;86.10;45.00;;;;;;;;;;4941346;28;20070;-90
2021/03/01 08:32:12;;;;;;;77.88;42.97;;;6.70;99.90;;;;;;4954500;29;20046;-94
2021/03/01 08:35:09;;;;;;;86.50;40.55;;;;;;;;;;4918395;28;20055;-91
2021/03/01 08:37:45;;;;;;;79.25;40.30;;;;;;;;;;4948502;29;20088;-92
2021/03/01 08:40:22;;;;;;;85.07;43.30;;;;;;;;;;4961535;29;20442;-92
2021/03/01 08:43:08;;;;;;;87.43;43.63;;;;;;;;;;4945107;29;20534;-92
2021/03/01 08:46:24;;;;;;;100.10;44.58;;;;;;;;;;4933429;29;20063;-92
2021/03/01 08:52:58;;;;;;;94.78;39.65;;;;;;;;;;4975603;23;20059;-92
2021/03/01 08:55:57;;;;;;;102.40;41.60;;;7.20;99.90;;;;;;4955224;29;20054;-93
2021/03/01 08:59:00;;;;;;;86.35;42.25;;;;;;;;;;4910231;29;20059;-92
2021/03/01 09:01:34;;;;;;;76.07;40.63;;;;;;;;;;4875725;29;20067;-92
2021/03/01 09:04:07;;;;;;;80.53;42.20;;;;;;;;;;4885759;29;20049;-92
2021/03/01 09:06:51;;;;;;;96.05;42.50;;;;;;;;;;4886109;29;20078;-91
2021/03/01 09:09:48;;;;;;;79.55;39.17;;;;;;;;;;4922638;23;20523;-93
2021/03/01 09:12:23;;;;;;;86.22;42.63;;;;;;;;;;4941603;29;20051;-92
2021/03/01 09:15:21;;;;;;;66.88;35.40;;;;;;;;;;4951599;23;20056;-90
2021/03/01 09:18:09;;;;;;;77.45;40.83;;;;;;;;;;4979869;28;20054;-92
2021/03/01 09:20:48;;;;;;;87.10;39.35;;;;;;;;;;4972401;28;20050;-92
2021/03/01 09:23:38;;;;;;;83.60;39.70;;;;;;;;;;4975138;28;20055;-92
2021/03/01 09:26:12;;;;;;;72.50;36.90;;;;;;;;;;4952413;29;20024;-91
2021/03/01 09:28:47;;;;;;;88.30;41.75;;;;;;;;;;4936276;29;20047;-92
2021/03/01 09:31:47;;;;;;;69.18;35.70;;;;;;;;;;4924933;29;20047;-93
2021/03/01 09:34:19;;;;;;;73.43;38.05;;;;;;;;;;4901890;29;20052;-93
2021/03/01 09:37:14;;;;;;;74.15;39.17;;;;;;;;;;4911725;29;20055;-92
2021/03/01 09:40:01;;;;;;;86.25;39.10;;;;;;;;;;4930349;29;20661;-90
2021/03/01 09:42:38;;;;;;;74.72;38.25;;;;;;;;;;4925383;29;20145;-91
2021/03/01 09:45:26;;;;;;;78.43;36.60;;;;;;;;;;4924993;24;20052;-91
2021/03/01 09:47:56;;;;;;;76.25;37.78;;;;;;;;;;4929249;24;20050;-90
2021/03/01 09:50:59;;;;;;;67.43;35.05;;;;;;;;;;4953696;29;20043;-91
2021/03/01 09:57:13;;;;;;;71.88;35.75;;;;;;;;;;4124962;26;20042;-92
2021/03/01 09:59:49;;;;;;;68.78;36.45;;;;;;;;;;4972922;28;20053;-91
2021/03/01 10:02:32;;;;;;;59.22;31.52;;;;;;;;;;5005595;28;20053;-92
2021/03/01 10:05:13;;;;;;;65.82;34.05;;;;;;;;;;4996189;28;20042;-94
2021/03/01 10:08:05;;;;;;;73.20;36.03;;;;;;;;;;4960653;28;20050;-93
2021/03/01 10:11:03;;;;;;;;;;;8.10;99.90;;;;;;4956189;28;20466;-92
2021/03/01 10:13:51;;;;;;;66.55;33.22;;;;;;;;;;4978673;28;19922;-91
2021/03/01 10:16:41;;;;;;;61.35;31.52;;;;;;;;;;4993987;28;20494;-91
2021/03/01 10:19:40;;;;;;;69.45;35.10;;;8.10;99.90;;;;;;4957322;28;20050;-92
2021/03/01 10:22:09;;;;;;;70.43;33.70;;;;;;;;;;4991545;28;20054;-93
2021/03/01 10:24:54;;;;;;;61.03;30.85;;;8.30;99.90;;;;;;4989897;28;20054;-92
2021/03/01 10:31:13;;;;;;;61.80;34.28;;;;;;;;;;4932966;29;20060;-92
2021/03/01 10:33:55;;;;;;;65.70;33.10;;;;;;;;;;4944936;29;20065;-91
2021/03/01 10:36:44;;;;;;;58.60;32.00;;;;;;;;;;5002079;23;20041;31
2021/03/01 10:39:44;;;;;;;61.75;33.10;;;;;;;;;;4953711;23;20092;-92
2021/03/01 10:42:40;;;;;;;56.92;29.38;;;;;;;;;;4932945;29;20055;-91
2021/03/01 10:45:19;;;;;;;55.03;29.33;;;;;;;;;;4931737;29;20056;-92
2021/03/01 10:48:01;;;;;;;60.22;30.40;;;;;;;;;;4956234;29;20027;-92
2021/03/01 10:50:56;;;;;;;67.78;33.67;;;;;;;;;;4967116;29;20127;-91
2021/03/01 10:54:03;;;;;;;60.23;29.90;;;8.80;99.90;;;;;;4957255;29;20049;-90
2021/03/01 10:56:49;;;;;;;66.93;34.13;;;;;;;;;;4954053;29;20323;-91
2021/03/01 10:59:39;;;;;;;;;;;8.60;99.90;;;;;;4946334;29;20062;-91
2021/03/01 11:02:11;;;;;;;60.35;30.95;;;;;;;;;;4945213;29;19922;-92
2021/03/01 11:04:46;;;;;;;60.97;32.70;;;;;;;;;;4928991;29;20051;-92
2021/03/01 11:07:27;;;;;;;54.78;31.58;;;9.00;99.90;;;;;;4919157;29;20047;-91
2021/03/01 11:10:00;;;;;;;56.97;30.80;;;;;;;;;;4940315;29;20055;-90
2021/03/01 11:12:28;;;;;;;60.70;31.85;;;;;;;;;;4901669;29;20043;-92
2021/03/01 11:15:00;;;;;;;61.50;32.95;;;;;;;;;;4929032;29;20062;-92
2021/03/01 11:17:31;;;;;;;68.32;35.55;;;;;;;;;;4916530;29;20059;-91
2021/03/01 11:20:06;;;;;;;77.38;32.75;;;;;;;;;;4938800;29;20059;-91
2021/03/01 11:22:35;;;;;;;58.13;31.27;;;;;;;;;;4926568;29;20056;-92
2021/03/01 11:25:08;;;;;;;54.17;31.10;;;;;;;;;;4941558;29;20055;-89
2021/03/01 11:27:38;;;;;;;54.53;28.75;;;;;;;;;;4941058;29;20046;-90
2021/03/01 11:30:08;;;;;;;56.03;28.52;;;;;;;;;;4940216;29;20047;-90
2021/03/01 11:32:38;;;;;;;68.97;32.35;;;;;;;;;;4961766;29;20070;-91
2021/03/01 11:35:09;;;;;;;57.60;31.42;;;;;;;;;;4939234;29;20047;-91
2021/03/01 11:37:50;;;;;;;51.60;29.90;;;;;;;;;;4915086;29;20091;-90
2021/03/01 11:40:20;;;;;;;52.00;28.55;;;;;;;;;;4916259;29;20051;-92
2021/03/01 11:42:49;;;;;;;60.42;32.70;;;;;;;;;;4913751;29;20051;-91
2021/03/01 11:45:30;;;;;;;58.38;32.13;;;;;;;;;;4920218;29;20051;-90
2021/03/01 11:47:59;;;;;;;57.33;30.83;;;;;;;;;;4916595;29;20067;-91
2021/03/01 11:50:34;;;;;;;57.78;31.52;;;;;;;;;;4919521;29;20052;-92
2021/03/01 11:53:07;;;;;;;54.42;29.38;;;;;;;;;;4923452;29;20488;-91
2021/03/01 12:02:06;;;;;;;57.80;29.55;;;;;;;;;;4921287;29;20049;-93
2021/03/01 12:04:52;;;;;;;58.95;29.63;;;;;;;;;;4919252;29;20057;-89
2021/03/01 12:11:09;;;;;;;56.58;31.70;;;;;;;;;;4932267;29;20052;-93
2021/03/01 12:14:02;;;;;;;59.00;28.70;;;;;;;;;;4917952;29;20053;-91
2021/03/01 12:17:30;;;;;;;57.03;33.60;;;;;;;;;;4917794;29;20056;-90
2021/03/01 12:20:12;;;;;;;56.78;32.35;;;;;;;;;;4896106;29;20055;-91
2021/03/01 12:23:21;;;;;;;54.00;29.08;;;;;;;;;;4903049;29;20045;-93
2021/03/01 12:26:36;;;;;;;63.63;29.95;;;;;;;;;;4835131;29;20067;-92
2021/03/01 12:32:54;;;;;;;60.05;27.45;;;;;;;;;;4948664;29;20031;-91
2021/03/01 12:35:31;;;;;;;53.17;29.77;;;;;;;;;;4955334;29;20052;-90
2021/03/01 12:41:25;;;;;;;55.55;31.67;;;;;;;;;;4090293;27;20046;-92
2021/03/01 12:47:34;;;;;;;56.35;31.02;;;;;;;;;;4927367;29;20062;-89
2021/03/01 12:50:11;;;;;;;64.63;31.73;;;;;;;;;;4945614;29;20055;-89
2021/03/01 12:53:24;;;;;;;60.83;29.50;;;;;;;;;;4908011;29;20044;-89
2021/03/01 12:55:56;;;;;;;56.42;30.60;;;;;;;;;;4933600;29;20050;-89
2021/03/01 12:58:37;;;;;;;67.93;29.25;;;;;;;;;;4936158;29;20075;-90
2021/03/01 13:01:14;;;;;;;;;;;9.90;99.90;;;;;;4927159;29;20052;-89
2021/03/01 13:05:28;;;;;;;57.35;31.23;;;;;;;;;;4943741;28;19930;-92
2021/03/01 21:35:22;;;;;;;111.13;43.58;;;;;;;;;;4983755;23;20052;-94
2021/03/01 21:38:17;;;;;;;93.53;38.22;;;;;;;;;;4933158;29;20047;-93
2021/03/01 21:41:07;;;;;;;93.38;36.10;;;;;;;;;;4907515;29;20064;-94
2021/03/01 21:43:55;;;;;;;91.53;38.22;;;;;;;;;;4941273;29;20043;-94
2021/03/01 21:47:05;;;;;;;98.10;41.53;;;;;;;;;;4966056;28;20050;-94
2021/03/01 21:50:42;;;;;;;89.82;38.28;;;5.90;99.90;;;;;;4957357;29;20515;-94
2021/03/01 21:53:16;;;;;;;94.30;34.95;;;5.70;99.90;;;;;;4932910;29;20051;-94
2021/03/01 21:55:49;;;;;;;84.78;40.25;;;;;;;;;;4929212;29;20359;-91
2021/03/01 21:58:29;;;;;;;96.25;42.00;;;;;;;;;;4904466;29;20061;-94
2021/03/01 22:01:21;;;;;;;86.28;38.10;;;;;;;;;;4918380;29;20048;-94
2021/03/01 22:04:13;;;;;;;88.90;36.15;;;5.90;99.90;;;;;;4939338;28;20054;-93
2021/03/01 22:06:42;;;;;;;80.57;37.30;;;;;;;;;;4940076;28;20062;-91
2021/03/01 22:09:27;;;;;;;79.60;36.75;;;;;;;;;;4957970;29;20055;-92
2021/03/01 22:11:59;;;;;;;95.13;39.08;;;;;;;;;;4932552;29;20059;-93
2021/03/01 22:14:32;;;;;;;95.05;37.83;;;;;;;;;;4939009;28;20047;-92
2021/03/01 22:17:03;;;;;;;86.65;37.65;;;;;;;;;;4922266;28;20051;-93
2021/03/01 22:19:36;;;;;;;82.13;37.70;;;;;;;;;;4926656;28;20055;-92
2021/03/01 22:22:22;;;;;;;93.68;38.05;;;;;;;;;;4941313;28;20054;-94
2021/03/01 22:25:13;;;;;;;95.35;40.08;;;;;;;;;;4945465;29;20140;-92
2021/03/01 22:28:05;;;;;;;89.50;41.05;;;5.70;99.90;;;;;;4917790;28;20058;-92
2021/03/01 22:30:40;;;;;;;95.97;37.83;;;;;;;;;;4934017;29;20052;-91
2021/03/01 22:33:22;;;;;;;75.30;36.90;;;;;;;;;;4913360;28;21085;-92
2021/03/01 22:36:08;;;;;;;89.18;36.70;;;;;;;;;;4917547;28;20052;-94
2021/03/01 22:38:52;;;;;;;91.90;39.50;;;5.60;99.90;;;;;;4915624;28;20051;-93
2021/03/01 22:41:25;;;;;;;84.22;39.60;;;;;;;;;;4936833;29;20509;-92
2021/03/01 22:43:59;;;;;;;84.40;41.28;;;;;;;;;;4914307;28;20053;-92
2021/03/01 22:46:37;;;;;;;77.10;38.35;;;5.70;99.90;;;;;;4914157;29;20059;-94
2021/03/01 22:49:08;;;;;;;89.15;37.42;;;;;;;;;;4935440;28;20043;-93
2021/03/01 22:51:53;;;;;;;85.47;32.63;;;;;;;;;;4936927;29;20059;-93
2021/03/01 22:54:30;;;;;;;67.95;34.55;;;;;;;;;;4918901;29;20054;-94
2021/03/01 22:57:14;;;;;;;68.97;33.40;;;;;;;;;;4926813;29;20043;-94
2021/03/01 22:59:58;;;;;;;87.82;33.92;;;;;;;;;;4910050;29;20051;-94
2021/03/01 23:02:27;;;;;;;91.80;38.58;;;;;;;;;;4928102;29;20056;-94
2021/03/01 23:04:58;;;;;;;82.15;35.20;;;;;;;;;;4903347;29;20296;-94
2021/03/01 23:07:29;;;;;;;72.18;38.95;;;;;;;;;;4911477;28;20175;-94
2021/03/01 23:10:20;;;;;;;87.82;37.00;;;;;;;;;;4936542;28;20054;-93
2021/03/01 23:13:03;;;;;;;71.10;32.05;;;;;;;;;;4923595;28;20049;-95
2021/03/01 23:15:42;;;;;;;73.30;35.72;;;;;;;;;;4920843;28;20054;-93
2021/03/01 23:18:13;;;;;;;75.07;33.70;;;;;;;;;;4935689;28;20047;-94
2021/03/01 23:21:03;;;;;;;99.07;39.92;;;;;;;;;;4928190;29;20095;-94
2021/03/01 23:23:46;;;;;;;70.10;34.83;;;;;;;;;;4950364;28;20039;-93
2021/03/01 23:26:30;;;;;;;68.30;32.78;;;;;;;;;;4931046;29;20711;-93
2021/03/01 23:29:14;;;;;;;73.95;34.97;;;;;;;;;;4927119;29;20051;-92
2021/03/01 23:31:58;;;;;;;68.07;30.80;;;5.70;99.90;;;;;;4940872;28;20062;-93
2021/03/01 23:34:45;;;;;;;70.03;35.55;;;;;;;;;;4932415;28;20053;-92
2021/03/01 23:37:25;;;;;;;76.13;34.40;;;;;;;;;;4922638;29;20242;-92
2021/03/01 23:40:12;;;;;;;65.65;32.80;;;;;;;;;;4967478;28;20062;-93
2021/03/01 23:42:44;;;;;;;74.28;32.30;;;;;;;;;;4926135;28;20062;-93
2021/03/01 23:45:28;;;;;;;64.70;32.08;;;;;;;;;;4931013;28;20030;-93
2021/03/01 23:47:59;;;;;;;56.07;30.57;;;;;;;;;;4937702;29;20528;-94
2021/03/01 23:50:42;;;;;;;80.90;34.70;;;;;;;;;;4930082;28;20080;-93
2021/03/01 23:53:30;;;;;;;61.85;34.70;;;;;;;;;;4939512;29;20051;-93
2021/03/01 23:56:16;;;;;;;76.35;38.58;;;;;;;;;;4942816;28;20048;-93
2021/03/01 23:59:01;;;;;;;81.72;37.65;;;;;;;;;;4605116;29;10000043;-93
